PWSweather.com
Personal Weather Stations
Station Observations
BLACKWELL
Blackwell, AlfretonGB DE55

BlackwellAlfretonGB DE55

Lat: 53.12076, Lon: -1.354978

Elevation: 410

Station Type: Vantage Pro

High Low Average
Temperature 54.3°F12.4°C 38.8°F3.8°C 46.4°F8.0°C
Dew Point 41.0°F5.0°C 35.1°F1.7°C 38.2°F3.4°C
Winds 4.0 mph 6.4 kmh Calm Calm 1.0 mph ENE1.6 kmh ENE
Wind Gusts 7.0 mph11.3 kmh 1.0 mph1.6 kmh 4.0 mph6.4 kmh
Humidity 88% 57% 74%
Pressure 29.73 in1006.8 mb 29.49 in998.6 mb -
Precipitation 0.00 in0.0 mm - -
Hour Temp Dew Point Humidity Winds Wind Gusts Pressure Precip Precip Rate Daily Precip Total
12:42 AM 41.5°F5.3°C 38.3°F3.5°C 88% 1.0 mph E1.6 kmh E 3.0 mph4.8 kmh 29.49 in998.6 mb 0.00 in0.0 mm 0.00 in0.0 mm 0.00 in0.0 mm
01:42 AM 41.4°F5.2°C 36.9°F2.7°C 84% 1.0 mph E1.6 kmh E 3.0 mph4.8 kmh 29.50 in999.0 mb 0.00 in0.0 mm 0.00 in0.0 mm 0.00 in0.0 mm
02:42 AM 39.7°F4.3°C 36.1°F2.3°C 87% Calm Calm 1.0 mph1.6 kmh 29.51 in999.3 mb 0.00 in0.0 mm 0.00 in0.0 mm 0.00 in0.0 mm
03:42 AM 39.4°F4.1°C 35.6°F2.0°C 86% 1.0 mph ENE1.6 kmh ENE 3.0 mph4.8 kmh 29.52 in999.7 mb 0.00 in0.0 mm 0.00 in0.0 mm 0.00 in0.0 mm
04:42 AM 38.8°F3.8°C 35.1°F1.7°C 86% Calm Calm 2.0 mph3.2 kmh 29.53 in1000.0 mb 0.00 in0.0 mm 0.00 in0.0 mm 0.00 in0.0 mm
05:42 AM 38.8°F3.8°C 35.4°F1.9°C 87% 1.0 mph E1.6 kmh E 3.0 mph4.8 kmh 29.54 in1000.3 mb 0.00 in0.0 mm 0.00 in0.0 mm 0.00 in0.0 mm
06:42 AM 41.5°F5.3°C 37.0°F2.8°C 84% 1.0 mph E1.6 kmh E 4.0 mph6.4 kmh 29.56 in1001.0 mb 0.00 in0.0 mm 0.00 in0.0 mm 0.00 in0.0 mm
07:42 AM 43.5°F6.4°C 38.1°F3.4°C 81% 2.0 mph E3.2 kmh E 4.0 mph6.4 kmh 29.57 in1001.4 mb 0.00 in0.0 mm 0.00 in0.0 mm 0.00 in0.0 mm
08:42 AM 47.5°F8.6°C 39.9°F4.4°C 75% 3.0 mph E4.8 kmh E 7.0 mph11.3 kmh 29.58 in1001.7 mb 0.00 in0.0 mm 0.00 in0.0 mm 0.00 in0.0 mm
09:42 AM 50.4°F10.2°C 40.5°F4.7°C 69% 4.0 mph E6.4 kmh E 7.0 mph11.3 kmh 29.60 in1002.4 mb 0.00 in0.0 mm 0.00 in0.0 mm 0.00 in0.0 mm
10:42 AM 51.6°F10.9°C 41.0°F5.0°C 67% 2.0 mph E3.2 kmh E 5.0 mph8.0 kmh 29.61 in1002.7 mb 0.00 in0.0 mm 0.00 in0.0 mm 0.00 in0.0 mm
11:42 AM 52.3°F11.3°C 39.7°F4.3°C 62% 2.0 mph E3.2 kmh E 6.0 mph9.7 kmh 29.62 in1003.0 mb 0.00 in0.0 mm 0.00 in0.0 mm 0.00 in0.0 mm
12:42 PM 52.5°F11.4°C 40.3°F4.6°C 63% 2.0 mph E3.2 kmh E 6.0 mph9.7 kmh 29.63 in1003.4 mb 0.00 in0.0 mm 0.00 in0.0 mm 0.00 in0.0 mm
01:42 PM 54.3°F12.4°C 39.7°F4.3°C 58% 1.0 mph E1.6 kmh E 5.0 mph8.0 kmh 29.63 in1003.4 mb 0.00 in0.0 mm 0.00 in0.0 mm 0.00 in0.0 mm
02:42 PM 53.1°F11.7°C 38.7°F3.7°C 58% 1.0 mph ENE1.6 kmh ENE 5.0 mph8.0 kmh 29.63 in1003.4 mb 0.00 in0.0 mm 0.00 in0.0 mm 0.00 in0.0 mm
03:42 PM 53.1°F11.7°C 39.2°F4.0°C 59% 1.0 mph E1.6 kmh E 4.0 mph6.4 kmh 29.64 in1003.7 mb 0.00 in0.0 mm 0.00 in0.0 mm 0.00 in0.0 mm
04:42 PM 52.0°F11.1°C 37.8°F3.2°C 58% 1.0 mph ENE1.6 kmh ENE 3.0 mph4.8 kmh 29.65 in1004.1 mb 0.00 in0.0 mm 0.00 in0.0 mm 0.00 in0.0 mm
05:42 PM 50.5°F10.3°C 36.0°F2.2°C 57% 1.0 mph ENE1.6 kmh ENE 4.0 mph6.4 kmh 29.66 in1004.4 mb 0.00 in0.0 mm 0.00 in0.0 mm 0.00 in0.0 mm
06:42 PM 48.2°F9.0°C 37.0°F2.8°C 65% Calm Calm 3.0 mph4.8 kmh 29.67 in1004.7 mb 0.00 in0.0 mm 0.00 in0.0 mm 0.00 in0.0 mm
07:42 PM 47.1°F8.4°C 38.8°F3.8°C 73% 1.0 mph ENE1.6 kmh ENE 3.0 mph4.8 kmh 29.69 in1005.4 mb 0.00 in0.0 mm 0.00 in0.0 mm 0.00 in0.0 mm
08:42 PM 45.5°F7.5°C 38.3°F3.5°C 76% Calm Calm 3.0 mph4.8 kmh 29.70 in1005.8 mb 0.00 in0.0 mm 0.00 in0.0 mm 0.00 in0.0 mm
09:42 PM 44.2°F6.8°C 39.4°F4.1°C 83% Calm Calm 2.0 mph3.2 kmh 29.71 in1006.1 mb 0.00 in0.0 mm 0.00 in0.0 mm 0.00 in0.0 mm
10:42 PM 43.3°F6.3°C 39.4°F4.1°C 86% Calm Calm 1.0 mph1.6 kmh 29.72 in1006.4 mb 0.00 in0.0 mm 0.00 in0.0 mm 0.00 in0.0 mm
11:42 PM 42.4°F5.8°C 38.8°F3.8°C 87% Calm Calm 1.0 mph1.6 kmh 29.73 in1006.8 mb 0.00 in0.0 mm 0.00 in0.0 mm 0.00 in0.0 mm